sensor_id;sensor_type;location;lat;lon;timestamp;pressure;altitude;pressure_sealevel;temperature;humidity
11448;BME280;43755;49.736;8.734;2023-03-24T00:01:58;96880.81;;;12.59;100.00
11448;BME280;43755;49.736;8.734;2023-03-24T00:04:00;96888.22;;;12.54;100.00
11448;BME280;43755;49.736;8.734;2023-03-24T00:06:04;96881.94;;;12.55;100.00
11448;BME280;43755;49.736;8.734;2023-03-24T00:08:07;96880.81;;;12.59;100.00
11448;BME280;43755;49.736;8.734;2023-03-24T00:10:12;96884.59;;;12.55;100.00
11448;BME280;43755;49.736;8.734;2023-03-24T00:12:15;96876.44;;;12.46;100.00
11448;BME280;43755;49.736;8.734;2023-03-24T00:14:18;96875.47;;;12.47;100.00
11448;BME280;43755;49.736;8.734;2023-03-24T00:16:19;96869.44;;;12.45;100.00
11448;BME280;43755;49.736;8.734;2023-03-24T00:18:21;96872.31;;;12.42;100.00
11448;BME280;43755;49.736;8.734;2023-03-24T00:20:26;96869.84;;;12.39;100.00
11448;BME280;43755;49.736;8.734;2023-03-24T00:22:28;96859.13;;;12.40;100.00
11448;BME280;43755;49.736;8.734;2023-03-24T00:24:30;96858.38;;;12.38;100.00
11448;BME280;43755;49.736;8.734;2023-03-24T00:26:33;96848.44;;;12.42;100.00
11448;BME280;43755;49.736;8.734;2023-03-24T00:28:38;96838.53;;;12.44;100.00
11448;BME280;43755;49.736;8.734;2023-03-24T00:30:40;96840.16;;;12.46;100.00
11448;BME280;43755;49.736;8.734;2023-03-24T00:32:42;96832.72;;;12.51;100.00
11448;BME280;43755;49.736;8.734;2023-03-24T00:34:44;96832.91;;;12.61;100.00
11448;BME280;43755;49.736;8.734;2023-03-24T00:36:46;96823.16;;;12.61;100.00
11448;BME280;43755;49.736;8.734;2023-03-24T00:38:47;96820.94;;;12.55;100.00
11448;BME280;43755;49.736;8.734;2023-03-24T00:40:49;96815.75;;;12.54;100.00
11448;BME280;43755;49.736;8.734;2023-03-24T00:42:51;96806.94;;;12.53;100.00
11448;BME280;43755;49.736;8.734;2023-03-24T00:44:54;96806.63;;;12.58;100.00
11448;BME280;43755;49.736;8.734;2023-03-24T00:46:56;96799.94;;;12.52;100.00
11448;BME280;43755;49.736;8.734;2023-03-24T00:49:00;96796.97;;;12.44;100.00
11448;BME280;43755;49.736;8.734;2023-03-24T00:51:04;96797.69;;;12.34;100.00
11448;BME280;43755;49.736;8.734;2023-03-24T00:53:07;96802.91;;;12.35;100.00
11448;BME280;43755;49.736;8.734;2023-03-24T00:55:10;96800.59;;;12.30;100.00
11448;BME280;43755;49.736;8.734;2023-03-24T00:57:15;96797.59;;;12.35;100.00
11448;BME280;43755;49.736;8.734;2023-03-24T00:59:20;96791.44;;;12.35;100.00
11448;BME280;43755;49.736;8.734;2023-03-24T01:01:25;96794.19;;;12.33;100.00
11448;BME280;43755;49.736;8.734;2023-03-24T01:03:28;96778.00;;;12.25;100.00
11448;BME280;43755;49.736;8.734;2023-03-24T01:05:33;96780.00;;;12.34;100.00
11448;BME280;43755;49.736;8.734;2023-03-24T01:07:35;96775.03;;;12.42;100.00
11448;BME280;43755;49.736;8.734;2023-03-24T01:09:43;96764.09;;;12.47;100.00
11448;BME280;43755;49.736;8.734;2023-03-24T01:11:51;96766.84;;;12.45;100.00
11448;BME280;43755;49.736;8.734;2023-03-24T01:13:52;96765.97;;;12.45;100.00
11448;BME280;43755;49.736;8.734;2023-03-24T01:15:54;96750.72;;;12.48;100.00
11448;BME280;43755;49.736;8.734;2023-03-24T01:17:58;96756.41;;;12.55;100.00
11448;BME280;43755;49.736;8.734;2023-03-24T01:20:01;96751.25;;;12.53;100.00
11448;BME280;43755;49.736;8.734;2023-03-24T01:22:07;96751.25;;;12.53;100.00
11448;BME280;43755;49.736;8.734;2023-03-24T01:24:09;96746.66;;;12.55;100.00
11448;BME280;43755;49.736;8.734;2023-03-24T01:26:12;96751.34;;;12.52;100.00
11448;BME280;43755;49.736;8.734;2023-03-24T01:28:16;96754.50;;;12.57;100.00
11448;BME280;43755;49.736;8.734;2023-03-24T01:30:22;96751.88;;;12.57;100.00
11448;BME280;43755;49.736;8.734;2023-03-24T01:32:24;96753.03;;;12.65;100.00
11448;BME280;43755;49.736;8.734;2023-03-24T01:34:27;96746.13;;;12.63;100.00
11448;BME280;43755;49.736;8.734;2023-03-24T01:36:29;96750.47;;;12.64;100.00
11448;BME280;43755;49.736;8.734;2023-03-24T01:38:30;96747.91;;;12.75;100.00
11448;BME280;43755;49.736;8.734;2023-03-24T01:40:34;96738.75;;;12.79;100.00
11448;BME280;43755;49.736;8.734;2023-03-24T01:42:37;96744.06;;;12.79;100.00
11448;BME280;43755;49.736;8.734;2023-03-24T01:44:39;96734.22;;;12.81;100.00
11448;BME280;43755;49.736;8.734;2023-03-24T01:46:41;96734.09;;;12.83;100.00
11448;BME280;43755;49.736;8.734;2023-03-24T01:48:45;96736.25;;;12.78;100.00
11448;BME280;43755;49.736;8.734;2023-03-24T01:50:55;96732.44;;;12.69;100.00
11448;BME280;43755;49.736;8.734;2023-03-24T01:52:58;96724.38;;;12.58;100.00
11448;BME280;43755;49.736;8.734;2023-03-24T01:55:03;96724.91;;;12.50;100.00
11448;BME280;43755;49.736;8.734;2023-03-24T01:57:09;96723.97;;;12.51;100.00
11448;BME280;43755;49.736;8.734;2023-03-24T01:59:13;96731.19;;;12.49;100.00
11448;BME280;43755;49.736;8.734;2023-03-24T02:01:18;96721.53;;;12.48;100.00
11448;BME280;43755;49.736;8.734;2023-03-24T02:03:22;96710.72;;;12.51;100.00
11448;BME280;43755;49.736;8.734;2023-03-24T02:05:32;96717.34;;;12.69;100.00
11448;BME280;43755;49.736;8.734;2023-03-24T02:07:39;96717.53;;;12.79;100.00
11448;BME280;43755;49.736;8.734;2023-03-24T02:09:43;96717.34;;;12.82;100.00
11448;BME280;43755;49.736;8.734;2023-03-24T02:11:44;96708.00;;;12.77;100.00
11448;BME280;43755;49.736;8.734;2023-03-24T02:13:46;96709.97;;;12.86;100.00
11448;BME280;43755;49.736;8.734;2023-03-24T02:15:57;96709.53;;;12.92;100.00
11448;BME280;43755;49.736;8.734;2023-03-24T02:18:05;96700.72;;;12.91;100.00
11448;BME280;43755;49.736;8.734;2023-03-24T02:22:57;96687.53;;;13.02;100.00
11448;BME280;43755;49.736;8.734;2023-03-24T02:25:29;96700.25;;;13.10;100.00
11448;BME280;43755;49.736;8.734;2023-03-24T02:27:57;96679.44;;;13.17;99.52
11448;BME280;43755;49.736;8.734;2023-03-24T02:30:12;96679.44;;;13.17;99.88
11448;BME280;43755;49.736;8.734;2023-03-24T02:32:36;96675.72;;;13.19;97.77
11448;BME280;43755;49.736;8.734;2023-03-24T02:35:11;96677.69;;;13.28;97.96
11448;BME280;43755;49.736;8.734;2023-03-24T02:37:28;96680.19;;;13.53;94.30
11448;BME280;43755;49.736;8.734;2023-03-24T02:39:43;96672.72;;;13.59;93.39
11448;BME280;43755;49.736;8.734;2023-03-24T02:41:51;96676.38;;;13.69;90.55
11448;BME280;43755;49.736;8.734;2023-03-24T02:44:02;96666.84;;;13.66;93.40
11448;BME280;43755;49.736;8.734;2023-03-24T02:46:11;96651.50;;;13.70;90.15
11448;BME280;43755;49.736;8.734;2023-03-24T02:48:21;96657.69;;;13.81;89.22
11448;BME280;43755;49.736;8.734;2023-03-24T02:50:28;96644.41;;;13.92;88.46
11448;BME280;43755;49.736;8.734;2023-03-24T02:52:36;96651.31;;;14.06;86.26
11448;BME280;43755;49.736;8.734;2023-03-24T02:54:44;96646.38;;;14.13;85.18
11448;BME280;43755;49.736;8.734;2023-03-24T02:56:52;96656.88;;;14.14;85.58
11448;BME280;43755;49.736;8.734;2023-03-24T02:59:01;96658.09;;;14.21;84.18
11448;BME280;43755;49.736;8.734;2023-03-24T03:01:05;96655.91;;;14.15;85.67
11448;BME280;43755;49.736;8.734;2023-03-24T03:03:12;96657.84;;;14.13;86.79
11448;BME280;43755;49.736;8.734;2023-03-24T03:05:18;96656.16;;;14.12;85.37
11448;BME280;43755;49.736;8.734;2023-03-24T03:07:24;96668.13;;;14.18;85.69
11448;BME280;43755;49.736;8.734;2023-03-24T03:09:27;96669.19;;;14.15;86.91
11448;BME280;43755;49.736;8.734;2023-03-24T03:11:30;96671.88;;;14.15;86.61
11448;BME280;43755;49.736;8.734;2023-03-24T03:13:35;96663.66;;;14.18;86.91
11448;BME280;43755;49.736;8.734;2023-03-24T03:15:42;96666.66;;;14.14;86.83
11448;BME280;43755;49.736;8.734;2023-03-24T03:17:47;96669.94;;;14.17;86.23
11448;BME280;43755;49.736;8.734;2023-03-24T03:19:54;96667.88;;;14.21;85.03
11448;BME280;43755;49.736;8.734;2023-03-24T03:21:57;96673.44;;;14.18;86.41
11448;BME280;43755;49.736;8.734;2023-03-24T03:24:03;96672.50;;;14.19;85.48
11448;BME280;43755;49.736;8.734;2023-03-24T03:26:09;96659.78;;;14.22;87.12
11448;BME280;43755;49.736;8.734;2023-03-24T03:28:18;96670.69;;;14.30;84.52
11448;BME280;43755;49.736;8.734;2023-03-24T03:30:23;96672.84;;;14.37;84.19
11448;BME280;43755;49.736;8.734;2023-03-24T03:32:31;96677.56;;;14.33;86.87
11448;BME280;43755;49.736;8.734;2023-03-24T03:34:37;96668.97;;;14.18;87.63
11448;BME280;43755;49.736;8.734;2023-03-24T03:36:46;96661.22;;;14.26;87.38
11448;BME280;43755;49.736;8.734;2023-03-24T03:38:53;96673.09;;;14.22;89.21
11448;BME280;43755;49.736;8.734;2023-03-24T03:40:59;96662.44;;;14.22;90.00
11448;BME280;43755;49.736;8.734;2023-03-24T03:43:03;96664.25;;;14.11;90.98
11448;BME280;43755;49.736;8.734;2023-03-24T03:45:09;96664.63;;;14.06;91.31
11448;BME280;43755;49.736;8.734;2023-03-24T03:47:11;96666.91;;;14.00;92.46
11448;BME280;43755;49.736;8.734;2023-03-24T03:49:14;96671.47;;;13.98;94.60
11448;BME280;43755;49.736;8.734;2023-03-24T03:51:16;96662.66;;;13.97;93.58
11448;BME280;43755;49.736;8.734;2023-03-24T03:53:19;96660.34;;;13.92;96.01
11448;BME280;43755;49.736;8.734;2023-03-24T03:55:23;96657.47;;;13.96;94.22
11448;BME280;43755;49.736;8.734;2023-03-24T03:57:25;96670.13;;;13.92;95.64
11448;BME280;43755;49.736;8.734;2023-03-24T03:59:28;96657.69;;;13.92;94.93
11448;BME280;43755;49.736;8.734;2023-03-24T04:01:35;96671.84;;;13.93;94.50
11448;BME280;43755;49.736;8.734;2023-03-24T04:03:54;96668.69;;;13.88;96.37
11448;BME280;43755;49.736;8.734;2023-03-24T04:06:02;96665.41;;;13.84;97.61
11448;BME280;43755;49.736;8.734;2023-03-24T04:08:13;96669.66;;;13.87;96.92
11448;BME280;43755;49.736;8.734;2023-03-24T04:10:21;96677.25;;;13.91;95.72
11448;BME280;43755;49.736;8.734;2023-03-24T04:12:40;96679.22;;;13.89;96.26
11448;BME280;43755;49.736;8.734;2023-03-24T04:15:04;96676.88;;;13.85;97.40
11448;BME280;43755;49.736;8.734;2023-03-24T04:17:18;96689.69;;;13.80;99.07
11448;BME280;43755;49.736;8.734;2023-03-24T04:19:36;96691.97;;;13.73;99.35
11448;BME280;43755;49.736;8.734;2023-03-24T04:21:51;96707.41;;;13.68;100.00
11448;BME280;43755;49.736;8.734;2023-03-24T04:24:07;96703.41;;;13.63;100.00
11448;BME280;43755;49.736;8.734;2023-03-24T04:26:17;96710.91;;;13.69;100.00
11448;BME280;43755;49.736;8.734;2023-03-24T04:28:32;96714.66;;;13.66;100.00
11448;BME280;43755;49.736;8.734;2023-03-24T04:30:41;96726.38;;;13.64;100.00
11448;BME280;43755;49.736;8.734;2023-03-24T04:32:47;96718.75;;;13.59;100.00
11448;BME280;43755;49.736;8.734;2023-03-24T04:34:54;96718.00;;;13.57;100.00
11448;BME280;43755;49.736;8.734;2023-03-24T04:37:03;96736.84;;;13.54;100.00
11448;BME280;43755;49.736;8.734;2023-03-24T04:39:06;96725.22;;;13.55;100.00
11448;BME280;43755;49.736;8.734;2023-03-24T04:41:09;96719.03;;;13.43;100.00
11448;BME280;43755;49.736;8.734;2023-03-24T04:43:13;96728.81;;;13.43;100.00
11448;BME280;43755;49.736;8.734;2023-03-24T04:45:17;96733.50;;;13.39;100.00
11448;BME280;43755;49.736;8.734;2023-03-24T04:47:21;96723.13;;;13.36;100.00
11448;BME280;43755;49.736;8.734;2023-03-24T04:49:26;96725.78;;;13.36;100.00
11448;BME280;43755;49.736;8.734;2023-03-24T04:51:28;96722.47;;;13.33;100.00
11448;BME280;43755;49.736;8.734;2023-03-24T04:53:29;96727.19;;;13.29;100.00
11448;BME280;43755;49.736;8.734;2023-03-24T04:55:52;96713.16;;;13.27;100.00
11448;BME280;43755;49.736;8.734;2023-03-24T04:57:57;96723.78;;;13.27;100.00
11448;BME280;43755;49.736;8.734;2023-03-24T04:59:58;96725.31;;;13.19;100.00
11448;BME280;43755;49.736;8.734;2023-03-24T05:02:00;96729.13;;;13.15;100.00
11448;BME280;43755;49.736;8.734;2023-03-24T05:04:02;96730.63;;;13.06;100.00
11448;BME280;43755;49.736;8.734;2023-03-24T05:06:06;96723.84;;;13.02;100.00
11448;BME280;43755;49.736;8.734;2023-03-24T05:08:08;96726.31;;;12.92;100.00
11448;BME280;43755;49.736;8.734;2023-03-24T05:10:10;96722.63;;;12.82;100.00
11448;BME280;43755;49.736;8.734;2023-03-24T05:12:12;96731.25;;;12.73;100.00
11448;BME280;43755;49.736;8.734;2023-03-24T05:14:14;96717.34;;;12.69;100.00
11448;BME280;43755;49.736;8.734;2023-03-24T05:16:16;96718.97;;;12.59;100.00
11448;BME280;43755;49.736;8.734;2023-03-24T05:18:17;96712.50;;;12.51;100.00
11448;BME280;43755;49.736;8.734;2023-03-24T05:20:19;96707.53;;;12.46;100.00
11448;BME280;43755;49.736;8.734;2023-03-24T05:22:21;96704.47;;;12.40;100.00
11448;BME280;43755;49.736;8.734;2023-03-24T05:24:23;96710.09;;;12.35;100.00
11448;BME280;43755;49.736;8.734;2023-03-24T05:26:25;96698.53;;;12.23;100.00
11448;BME280;43755;49.736;8.734;2023-03-24T05:28:26;96693.66;;;12.17;100.00
11448;BME280;43755;49.736;8.734;2023-03-24T05:30:28;96692.63;;;12.07;100.00
11448;BME280;43755;49.736;8.734;2023-03-24T05:32:29;96689.53;;;12.01;100.00
11448;BME280;43755;49.736;8.734;2023-03-24T05:34:31;96700.84;;;11.90;100.00
11448;BME280;43755;49.736;8.734;2023-03-24T05:36:32;96688.16;;;11.82;100.00
11448;BME280;43755;49.736;8.734;2023-03-24T05:38:35;96675.75;;;11.83;100.00
11448;BME280;43755;49.736;8.734;2023-03-24T05:40:36;96676.72;;;11.82;100.00
11448;BME280;43755;49.736;8.734;2023-03-24T05:42:38;96677.03;;;11.77;100.00
11448;BME280;43755;49.736;8.734;2023-03-24T05:44:39;96681.34;;;11.78;100.00
11448;BME280;43755;49.736;8.734;2023-03-24T05:46:41;96678.81;;;11.77;100.00
11448;BME280;43755;49.736;8.734;2023-03-24T05:48:42;96689.41;;;11.77;100.00
11448;BME280;43755;49.736;8.734;2023-03-24T05:50:44;96693.41;;;11.70;100.00
11448;BME280;43755;49.736;8.734;2023-03-24T05:52:45;96694.16;;;11.72;100.00
11448;BME280;43755;49.736;8.734;2023-03-24T05:54:48;96685.94;;;11.76;100.00
11448;BME280;43755;49.736;8.734;2023-03-24T05:56:51;96700.75;;;11.79;100.00
11448;BME280;43755;49.736;8.734;2023-03-24T05:58:52;96693.19;;;11.73;100.00
11448;BME280;43755;49.736;8.734;2023-03-24T06:00:55;96697.47;;;11.75;100.00
11448;BME280;43755;49.736;8.734;2023-03-24T06:02:56;96695.97;;;11.84;100.00
11448;BME280;43755;49.736;8.734;2023-03-24T06:04:57;96702.34;;;11.81;100.00
11448;BME280;43755;49.736;8.734;2023-03-24T06:07:01;96703.94;;;11.84;100.00
11448;BME280;43755;49.736;8.734;2023-03-24T06:09:03;96704.69;;;11.86;100.00
11448;BME280;43755;49.736;8.734;2023-03-24T06:11:06;96714.09;;;11.90;100.00
11448;BME280;43755;49.736;8.734;2023-03-24T06:13:07;96715.72;;;11.93;100.00
11448;BME280;43755;49.736;8.734;2023-03-24T06:15:09;96716.56;;;11.93;100.00
11448;BME280;43755;49.736;8.734;2023-03-24T06:17:11;96715.63;;;11.94;100.00
11448;BME280;43755;49.736;8.734;2023-03-24T06:19:14;96721.78;;;11.95;100.00
11448;BME280;43755;49.736;8.734;2023-03-24T06:21:16;96726.13;;;11.96;100.00
11448;BME280;43755;49.736;8.734;2023-03-24T06:23:18;96724.28;;;11.96;100.00
11448;BME280;43755;49.736;8.734;2023-03-24T06:25:19;96719.97;;;11.95;100.00
11448;BME280;43755;49.736;8.734;2023-03-24T06:27:22;96727.78;;;11.97;100.00
11448;BME280;43755;49.736;8.734;2023-03-24T06:29:25;96722.41;;;11.98;100.00
11448;BME280;43755;49.736;8.734;2023-03-24T06:31:26;96720.50;;;12.00;100.00
11448;BME280;43755;49.736;8.734;2023-03-24T06:33:29;96721.53;;;11.98;100.00
11448;BME280;43755;49.736;8.734;2023-03-24T06:35:30;96716.91;;;12.01;100.00
11448;BME280;43755;49.736;8.734;2023-03-24T06:37:32;96716.91;;;12.01;100.00
11448;BME280;43755;49.736;8.734;2023-03-24T06:39:33;96716.16;;;11.99;100.00
11448;BME280;43755;49.736;8.734;2023-03-24T06:41:35;96713.59;;;11.98;100.00
11448;BME280;43755;49.736;8.734;2023-03-24T06:43:38;96716.25;;;11.98;100.00
11448;BME280;43755;49.736;8.734;2023-03-24T06:45:39;96727.38;;;12.03;100.00
11448;BME280;43755;49.736;8.734;2023-03-24T06:47:41;96724.94;;;12.00;100.00
11448;BME280;43755;49.736;8.734;2023-03-24T06:49:43;96727.50;;;12.01;100.00
11448;BME280;43755;49.736;8.734;2023-03-24T06:51:45;96735.22;;;12.04;100.00
11448;BME280;43755;49.736;8.734;2023-03-24T06:53:46;96723.69;;;12.05;100.00
11448;BME280;43755;49.736;8.734;2023-03-24T06:55:48;96731.19;;;11.99;100.00
11448;BME280;43755;49.736;8.734;2023-03-24T06:57:50;96735.53;;;12.00;100.00
11448;BME280;43755;49.736;8.734;2023-03-24T06:59:53;96736.41;;;12.00;100.00
11448;BME280;43755;49.736;8.734;2023-03-24T07:01:54;96749.00;;;11.97;100.00
11448;BME280;43755;49.736;8.734;2023-03-24T07:03:56;96748.38;;;11.93;100.00
11448;BME280;43755;49.736;8.734;2023-03-24T07:05:58;96746.56;;;11.94;100.00
11448;BME280;43755;49.736;8.734;2023-03-24T07:07:59;96743.91;;;11.94;100.00
11448;BME280;43755;49.736;8.734;2023-03-24T07:10:02;96746.56;;;11.94;100.00
11448;BME280;43755;49.736;8.734;2023-03-24T07:12:04;96742.44;;;11.89;100.00
11448;BME280;43755;49.736;8.734;2023-03-24T07:14:05;96749.22;;;11.94;100.00
11448;BME280;43755;49.736;8.734;2023-03-24T07:16:08;96744.44;;;11.99;100.00
11448;BME280;43755;49.736;8.734;2023-03-24T07:18:10;96742.84;;;11.96;100.00
11448;BME280;43755;49.736;8.734;2023-03-24T07:20:12;96743.59;;;11.98;100.00
11448;BME280;43755;49.736;8.734;2023-03-24T07:22:15;96757.38;;;12.03;100.00
11448;BME280;43755;49.736;8.734;2023-03-24T07:24:16;96754.94;;;12.00;100.00
11448;BME280;43755;49.736;8.734;2023-03-24T07:26:17;96762.56;;;11.92;100.00
11448;BME280;43755;49.736;8.734;2023-03-24T07:28:19;96755.69;;;11.89;100.00
11448;BME280;43755;49.736;8.734;2023-03-24T07:30:22;96760.00;;;11.90;100.00
11448;BME280;43755;49.736;8.734;2023-03-24T07:32:25;96760.84;;;11.91;100.00
11448;BME280;43755;49.736;8.734;2023-03-24T07:34:27;96766.16;;;11.91;100.00
11448;BME280;43755;49.736;8.734;2023-03-24T07:36:29;96753.03;;;11.89;100.00
11448;BME280;43755;49.736;8.734;2023-03-24T07:38:30;96755.56;;;11.91;100.00
11448;BME280;43755;49.736;8.734;2023-03-24T07:40:33;96753.34;;;11.98;100.00
11448;BME280;43755;49.736;8.734;2023-03-24T07:42:35;96754.28;;;11.97;100.00
11448;BME280;43755;49.736;8.734;2023-03-24T07:44:36;96752.50;;;11.97;100.00
11448;BME280;43755;49.736;8.734;2023-03-24T07:46:38;96760.44;;;11.97;100.00
11448;BME280;43755;49.736;8.734;2023-03-24T07:48:40;96754.00;;;12.01;100.00
11448;BME280;43755;49.736;8.734;2023-03-24T07:50:42;96765.31;;;12.03;100.00
11448;BME280;43755;49.736;8.734;2023-03-24T07:52:46;96755.06;;;11.99;100.00
11448;BME280;43755;49.736;8.734;2023-03-24T07:54:48;96755.16;;;11.97;100.00
11448;BME280;43755;49.736;8.734;2023-03-24T07:56:49;96752.94;;;12.04;100.00
11448;BME280;43755;49.736;8.734;2023-03-24T07:58:51;96761.31;;;12.10;100.00
11448;BME280;43755;49.736;8.734;2023-03-24T08:00:52;96761.41;;;12.09;100.00
11448;BME280;43755;49.736;8.734;2023-03-24T08:02:53;96761.31;;;12.10;100.00
11448;BME280;43755;49.736;8.734;2023-03-24T08:04:56;96758.13;;;12.05;100.00
11448;BME280;43755;49.736;8.734;2023-03-24T08:06:58;96753.69;;;12.06;100.00
11448;BME280;43755;49.736;8.734;2023-03-24T08:09:00;96763.44;;;12.05;100.00
11448;BME280;43755;49.736;8.734;2023-03-24T08:11:01;96763.84;;;11.99;100.00
11448;BME280;43755;49.736;8.734;2023-03-24T08:13:03;96755.81;;;12.01;100.00
11448;BME280;43755;49.736;8.734;2023-03-24T08:15:06;96744.13;;;12.03;100.00
11448;BME280;43755;49.736;8.734;2023-03-24T08:17:08;96740.44;;;12.06;100.00
11448;BME280;43755;49.736;8.734;2023-03-24T08:19:09;96743.41;;;12.01;100.00
11448;BME280;43755;49.736;8.734;2023-03-24T08:21:12;96751.13;;;12.04;100.00
11448;BME280;43755;49.736;8.734;2023-03-24T08:23:13;96744.97;;;12.04;100.00
11448;BME280;43755;49.736;8.734;2023-03-24T08:25:17;96746.44;;;12.08;100.00
11448;BME280;43755;49.736;8.734;2023-03-24T08:27:19;96746.25;;;12.11;100.00
11448;BME280;43755;49.736;8.734;2023-03-24T08:29:20;96749.84;;;12.10;100.00
11448;BME280;43755;49.736;8.734;2023-03-24T08:31:22;96746.78;;;12.03;100.00
11448;BME280;43755;49.736;8.734;2023-03-24T08:33:23;96755.91;;;11.99;100.00
11448;BME280;43755;49.736;8.734;2023-03-24T08:35:27;96758.13;;;11.93;100.00
11448;BME280;43755;49.736;8.734;2023-03-24T08:37:30;96767.00;;;11.92;100.00
11448;BME280;43755;49.736;8.734;2023-03-24T08:39:31;96758.75;;;11.96;100.00
11448;BME280;43755;49.736;8.734;2023-03-24T08:41:35;96764.91;;;11.97;100.00
11448;BME280;43755;49.736;8.734;2023-03-24T08:43:36;96758.22;;;12.04;100.00
11448;BME280;43755;49.736;8.734;2023-03-24T08:45:38;96765.00;;;12.08;100.00
11448;BME280;43755;49.736;8.734;2023-03-24T08:47:39;96746.78;;;12.16;100.00
11448;BME280;43755;49.736;8.734;2023-03-24T08:49:41;96754.41;;;12.20;100.00
11448;BME280;43755;49.736;8.734;2023-03-24T08:51:42;96762.09;;;12.25;100.00
11448;BME280;43755;49.736;8.734;2023-03-24T08:53:45;96750.06;;;12.19;100.00
11448;BME280;43755;49.736;8.734;2023-03-24T08:55:47;96754.00;;;12.14;100.00
11448;BME280;43755;49.736;8.734;2023-03-24T08:57:49;96764.72;;;12.12;100.00
11448;BME280;43755;49.736;8.734;2023-03-24T08:59:50;96758.66;;;12.10;100.00
11448;BME280;43755;49.736;8.734;2023-03-24T09:01:52;96748.47;;;12.04;100.00
11448;BME280;43755;49.736;8.734;2023-03-24T09:03:53;96757.47;;;12.02;100.00
11448;BME280;43755;49.736;8.734;2023-03-24T09:05:55;96752.19;;;12.02;100.00
11448;BME280;43755;49.736;8.734;2023-03-24T09:07:57;96748.81;;;12.00;100.00
11448;BME280;43755;49.736;8.734;2023-03-24T09:10:01;96750.59;;;11.99;100.00
11448;BME280;43755;49.736;8.734;2023-03-24T09:12:02;96745.81;;;12.04;100.00
11448;BME280;43755;49.736;8.734;2023-03-24T09:14:04;96756.53;;;12.03;100.00
11448;BME280;43755;49.736;8.734;2023-03-24T09:16:05;96753.25;;;12.12;100.00
11448;BME280;43755;49.736;8.734;2023-03-24T09:18:07;96758.66;;;12.10;100.00
11448;BME280;43755;49.736;8.734;2023-03-24T09:20:10;96764.19;;;12.07;100.00
11448;BME280;43755;49.736;8.734;2023-03-24T09:22:12;96765.31;;;12.03;100.00
11448;BME280;43755;49.736;8.734;2023-03-24T09:24:13;96756.88;;;12.11;100.00
11448;BME280;43755;49.736;8.734;2023-03-24T09:26:16;96758.97;;;12.06;100.00
11448;BME280;43755;49.736;8.734;2023-03-24T09:28:18;96760.78;;;12.05;100.00
11448;BME280;43755;49.736;8.734;2023-03-24T09:30:19;96768.06;;;12.02;100.00
11448;BME280;43755;49.736;8.734;2023-03-24T09:32:21;96761.72;;;12.04;100.00
11448;BME280;43755;49.736;8.734;2023-03-24T09:34:22;96766.19;;;12.04;100.00
11448;BME280;43755;49.736;8.734;2023-03-24T09:36:24;96764.28;;;12.06;100.00
11448;BME280;43755;49.736;8.734;2023-03-24T09:38:26;96764.38;;;12.04;100.00
11448;BME280;43755;49.736;8.734;2023-03-24T09:40:29;96757.47;;;12.02;100.00
11448;BME280;43755;49.736;8.734;2023-03-24T09:42:34;96767.13;;;12.03;100.00
11448;BME280;43755;49.736;8.734;2023-03-24T09:44:39;96773.72;;;12.10;100.00
11448;BME280;43755;49.736;8.734;2023-03-24T09:46:47;96771.28;;;12.07;100.00
11448;BME280;43755;49.736;8.734;2023-03-24T09:48:53;96768.84;;;12.16;100.00
11448;BME280;43755;49.736;8.734;2023-03-24T09:50:57;96770.66;;;12.16;100.00
11448;BME280;43755;49.736;8.734;2023-03-24T09:53:05;96777.03;;;12.13;100.00
11448;BME280;43755;49.736;8.734;2023-03-24T09:55:10;96787.50;;;12.15;100.00
11448;BME280;43755;49.736;8.734;2023-03-24T09:57:16;96780.81;;;12.09;100.00
11448;BME280;43755;49.736;8.734;2023-03-24T09:59:29;96780.91;;;12.08;100.00
11448;BME280;43755;49.736;8.734;2023-03-24T10:01:33;96779.03;;;12.10;100.00
11448;BME280;43755;49.736;8.734;2023-03-24T10:03:34;96771.38;;;12.05;100.00
11448;BME280;43755;49.736;8.734;2023-03-24T10:05:38;96760.88;;;12.04;100.00
11448;BME280;43755;49.736;8.734;2023-03-24T10:07:46;96772.44;;;12.03;100.00
11448;BME280;43755;49.736;8.734;2023-03-24T10:09:55;96773.09;;;12.06;100.00
11448;BME280;43755;49.736;8.734;2023-03-24T10:12:10;96774.13;;;12.04;100.00
11448;BME280;43755;49.736;8.734;2023-03-24T10:14:26;96779.84;;;11.98;100.00
11448;BME280;43755;49.736;8.734;2023-03-24T10:16:38;96782.50;;;11.98;100.00
11448;BME280;43755;49.736;8.734;2023-03-24T10:18:45;96779.53;;;11.89;100.00
11448;BME280;43755;49.736;8.734;2023-03-24T10:20:51;96793.50;;;11.92;100.00
11448;BME280;43755;49.736;8.734;2023-03-24T10:22:59;96792.88;;;11.88;100.00
11448;BME280;43755;49.736;8.734;2023-03-24T10:25:06;96804.44;;;11.87;100.00
11448;BME280;43755;49.736;8.734;2023-03-24T10:27:19;96795.94;;;11.82;100.00
11448;BME280;43755;49.736;8.734;2023-03-24T10:29:26;96791.13;;;11.74;100.00
11448;BME280;43755;49.736;8.734;2023-03-24T10:31:31;96786.91;;;11.84;100.00
11448;BME280;43755;49.736;8.734;2023-03-24T10:33:38;96778.25;;;11.82;100.00
11448;BME280;43755;49.736;8.734;2023-03-24T10:35:42;96804.94;;;11.79;100.00
11448;BME280;43755;49.736;8.734;2023-03-24T10:37:46;96792.44;;;11.81;100.00
11448;BME280;43755;49.736;8.734;2023-03-24T10:39:49;96800.47;;;11.80;100.00
11448;BME280;43755;49.736;8.734;2023-03-24T10:41:51;96810.13;;;11.81;100.00
11448;BME280;43755;49.736;8.734;2023-03-24T10:43:55;96850.09;;;11.78;100.00
11448;BME280;43755;49.736;8.734;2023-03-24T10:46:01;96879.59;;;11.72;100.00
11448;BME280;43755;49.736;8.734;2023-03-24T10:48:03;96898.13;;;11.02;100.00
11448;BME280;43755;49.736;8.734;2023-03-24T10:50:07;96881.94;;;10.36;100.00
11448;BME280;43755;49.736;8.734;2023-03-24T10:52:09;96887.34;;;9.89;100.00
11448;BME280;43755;49.736;8.734;2023-03-24T10:54:13;96893.91;;;9.82;100.00
11448;BME280;43755;49.736;8.734;2023-03-24T10:56:16;96875.78;;;9.76;100.00